createdAt,value
2022-07-31T00:02:42.862Z,17.93
2022-07-31T00:09:53.276Z,17.79
2022-07-31T00:16:57.681Z,17.70
2022-07-31T00:23:59.916Z,17.63
2022-07-31T00:31:03.793Z,17.66
2022-07-31T00:38:26.256Z,17.84
2022-07-31T00:45:31.736Z,17.91
2022-07-31T00:52:39.432Z,17.96
2022-07-31T00:59:43.925Z,17.98
2022-07-31T01:06:46.129Z,17.96
2022-07-31T01:13:51.127Z,17.84
2022-07-31T01:20:53.377Z,17.84
2022-07-31T01:28:01.416Z,17.77
2022-07-31T01:35:06.596Z,17.67
2022-07-31T01:42:08.968Z,17.50
2022-07-31T01:49:11.866Z,17.34
2022-07-31T01:56:18.113Z,17.34
2022-07-31T02:03:20.664Z,17.32
2022-07-31T02:10:47.814Z,17.28
2022-07-31T02:17:51.899Z,17.23
2022-07-31T02:25:14.830Z,17.16
2022-07-31T02:32:17.387Z,17.11
2022-07-31T02:39:25.554Z,17.10
2022-07-31T02:46:31.912Z,17.08
2022-07-31T02:53:34.217Z,16.99
2022-07-31T03:00:39.739Z,16.87
2022-07-31T03:07:42.226Z,16.87
2022-07-31T03:14:44.920Z,16.95
2022-07-31T03:21:48.486Z,16.97
2022-07-31T03:28:50.743Z,16.95
2022-07-31T03:35:55.204Z,17.07
2022-07-31T03:42:58.724Z,17.10
2022-07-31T03:50:03.558Z,17.20
2022-07-31T03:57:08.371Z,17.28
2022-07-31T04:04:13.473Z,17.56
2022-07-31T04:11:33.004Z,17.57
2022-07-31T04:18:35.246Z,17.49
2022-07-31T04:25:38.891Z,17.35
2022-07-31T04:33:04.214Z,17.20
2022-07-31T04:40:10.692Z,17.43
2022-07-31T04:47:14.311Z,18.76
2022-07-31T04:54:22.113Z,20.36
2022-07-31T05:01:25.460Z,20.67
2022-07-31T05:08:29.098Z,21.33
2022-07-31T05:15:31.400Z,22.13
2022-07-31T05:22:33.751Z,22.64
2022-07-31T05:30:10.903Z,24.54
2022-07-31T05:37:13.442Z,25.74
2022-07-31T05:44:16.682Z,24.94
2022-07-31T05:51:23.123Z,24.78
2022-07-31T05:58:25.478Z,23.34
2022-07-31T06:05:28.000Z,22.92
2022-07-31T06:12:31.527Z,22.81
2022-07-31T06:19:36.252Z,22.61
2022-07-31T06:26:41.753Z,22.09
2022-07-31T06:33:47.335Z,22.28
2022-07-31T06:40:51.540Z,22.27
2022-07-31T06:48:02.164Z,22.63
2022-07-31T06:55:16.733Z,22.83
2022-07-31T07:02:19.229Z,22.87
2022-07-31T07:09:21.561Z,22.96
2022-07-31T07:16:28.043Z,23.33
2022-07-31T07:23:30.415Z,23.30
2022-07-31T07:30:50.841Z,23.61
2022-07-31T07:37:55.499Z,23.74
2022-07-31T07:44:59.962Z,24.10
2022-07-31T07:52:04.090Z,24.56
2022-07-31T07:59:16.213Z,25.76
2022-07-31T08:06:50.720Z,26.15
2022-07-31T08:13:55.745Z,25.32
2022-07-31T08:21:39.400Z,25.47
2022-07-31T08:28:41.807Z,25.03
2022-07-31T08:35:53.776Z,24.64
2022-07-31T08:42:57.987Z,24.30
2022-07-31T08:50:05.329Z,24.67
2022-07-31T08:57:12.715Z,25.22
2022-07-31T09:04:18.822Z,25.59
2022-07-31T09:11:21.164Z,26.33
2022-07-31T09:18:43.674Z,26.48
2022-07-31T09:25:56.382Z,27.56
2022-07-31T09:33:12.877Z,27.57
2022-07-31T09:40:57.182Z,28.06
2022-07-31T09:48:08.170Z,27.96
2022-07-31T09:55:15.495Z,28.18
2022-07-31T10:02:20.945Z,28.42
2022-07-31T10:09:24.955Z,29.54
2022-07-31T10:16:31.652Z,29.71
2022-07-31T10:23:55.288Z,29.70
2022-07-31T10:30:58.019Z,29.41
2022-07-31T10:38:03.804Z,29.81
2022-07-31T10:45:26.968Z,29.86
2022-07-31T10:52:46.085Z,28.88
2022-07-31T10:59:51.227Z,30.26
2022-07-31T11:07:24.002Z,30.11
2022-07-31T11:14:42.015Z,29.91
2022-07-31T11:22:31.681Z,29.98
2022-07-31T11:29:58.837Z,30.16
2022-07-31T11:36:59.536Z,29.67
2022-07-31T11:44:03.304Z,30.82
2022-07-31T11:51:06.948Z,31.62
2022-07-31T11:58:10.658Z,32.00
2022-07-31T12:05:15.376Z,31.47
2022-07-31T12:12:22.311Z,30.58
2022-07-31T12:19:30.492Z,30.36
2022-07-31T12:26:39.598Z,30.21
2022-07-31T12:33:43.486Z,29.34
2022-07-31T12:40:48.219Z,30.38
2022-07-31T12:47:53.385Z,28.92
2022-07-31T12:54:58.176Z,27.58
2022-07-31T13:02:00.978Z,29.10
2022-07-31T13:09:05.745Z,29.32
2022-07-31T13:16:12.663Z,29.48
2022-07-31T13:23:14.888Z,29.13
2022-07-31T13:30:17.171Z,29.05
2022-07-31T13:37:20.813Z,28.87
2022-07-31T13:44:23.069Z,28.50
2022-07-31T13:51:28.895Z,28.38
2022-07-31T13:58:32.862Z,28.65
2022-07-31T14:05:40.056Z,28.40
2022-07-31T14:12:43.021Z,28.67
2022-07-31T14:19:46.662Z,28.53
2022-07-31T14:26:48.870Z,28.69
2022-07-31T14:33:51.195Z,28.77
2022-07-31T14:40:54.823Z,28.91
2022-07-31T14:47:57.141Z,28.37
2022-07-31T14:54:59.942Z,28.24
2022-07-31T15:02:04.173Z,28.44
2022-07-31T15:09:16.237Z,28.64
2022-07-31T15:16:21.855Z,28.59
2022-07-31T15:23:25.425Z,28.64
2022-07-31T15:30:38.411Z,28.71
2022-07-31T15:37:41.423Z,28.52
2022-07-31T15:44:44.995Z,28.60
2022-07-31T15:51:47.287Z,28.47
2022-07-31T15:58:53.708Z,28.20
2022-07-31T16:05:57.584Z,28.22
2022-07-31T16:13:00.056Z,28.15
2022-07-31T16:20:02.255Z,28.01
2022-07-31T16:27:06.122Z,27.87
2022-07-31T16:34:08.708Z,27.52
2022-07-31T16:41:11.036Z,27.28
2022-07-31T16:48:14.608Z,27.37
2022-07-31T16:55:16.821Z,27.06
2022-07-31T17:02:19.065Z,27.14
2022-07-31T17:09:24.860Z,27.28
2022-07-31T17:16:29.328Z,27.11
2022-07-31T17:23:44.055Z,26.74
2022-07-31T17:30:54.863Z,26.66
2022-07-31T17:37:57.371Z,26.62
2022-07-31T17:45:01.983Z,26.60
2022-07-31T17:52:06.231Z,26.52
2022-07-31T17:59:08.541Z,26.41
2022-07-31T18:06:10.765Z,26.18
2022-07-31T18:13:14.568Z,26.10
2022-07-31T18:20:19.212Z,26.05
2022-07-31T18:27:21.431Z,25.85
2022-07-31T18:34:24.973Z,25.71
2022-07-31T18:41:27.482Z,25.60
2022-07-31T18:48:29.762Z,25.56
2022-07-31T18:55:33.391Z,25.49
2022-07-31T19:02:35.709Z,25.39
2022-07-31T19:09:38.059Z,25.27
2022-07-31T19:16:41.633Z,25.12
2022-07-31T19:23:45.330Z,25.18
2022-07-31T19:30:47.803Z,25.02
2022-07-31T19:37:57.338Z,24.84
2022-07-31T19:44:59.693Z,24.51
2022-07-31T19:52:02.413Z,24.30
2022-07-31T19:59:06.313Z,24.26
2022-07-31T20:06:08.566Z,24.27
2022-07-31T20:13:10.771Z,24.28
2022-07-31T20:20:16.163Z,24.12
2022-07-31T20:27:18.696Z,24.04
2022-07-31T20:34:22.680Z,23.90
2022-07-31T20:41:27.385Z,23.72
2022-07-31T20:48:33.070Z,23.57
2022-07-31T20:55:35.422Z,23.47
2022-07-31T21:02:38.976Z,23.26
2022-07-31T21:09:42.863Z,23.20
2022-07-31T21:16:45.068Z,23.11
2022-07-31T21:23:48.685Z,22.96
2022-07-31T21:30:52.943Z,22.77
2022-07-31T21:37:56.815Z,22.73
2022-07-31T21:45:03.185Z,22.70
2022-07-31T21:52:09.383Z,22.56
2022-07-31T21:59:12.886Z,22.47
2022-07-31T22:06:34.983Z,22.30
2022-07-31T22:13:37.188Z,22.19
2022-07-31T22:20:40.138Z,22.17
2022-07-31T22:27:52.401Z,22.02
2022-07-31T22:34:54.662Z,21.96
2022-07-31T22:41:59.879Z,21.93
2022-07-31T22:49:04.199Z,21.83
2022-07-31T22:56:06.465Z,21.60
2022-07-31T23:03:08.849Z,21.46
2022-07-31T23:10:12.801Z,21.43
2022-07-31T23:17:23.277Z,21.32
2022-07-31T23:24:26.016Z,21.27
2022-07-31T23:31:29.584Z,21.27
2022-07-31T23:38:31.807Z,21.14
2022-07-31T23:45:35.906Z,21.02
2022-07-31T23:52:39.433Z,20.93
2022-07-31T23:59:41.662Z,20.81
